Anza, California
Current Conditions -  °F | °C
As of 11:53 PM on Thursday 23 Oct 2014 (Local Time) from KPSP Reporting Station
Clear Clear  
Wind Chill: 77°   Ceiling: Unl
Heat Index: 77°   Visibility: 10mi
Dew Point: 34°   Wind: 8mph
Humidity: 21%   Direction: 320°NW
Pressure: 29.96"   Gusts: NA
Location:  33.55°N, 116.67°W
Report Text: KPSP 240653Z 32007KT 10SM CLR 25/01 A2996 RMK AO2 SLP142 T02500011 $
Loading
Personal Weather Stations






























Interactive Weather Map New forecast layout! Learn more

10-Day Weather Forecast

Advertisements
Track Severe Weather on mobile